Pittsburgh, Pennsylvania
Traffic Map
Current Weather Conditions
Pittsburgh, Pennsylvania
Clear
Clear
73°
Feels Like: 73°
Wind Chill: 73° Ceiling: Unl
Heat Index: 73° Visibility: 10mi
Dew Point: 48° Wind: 9mph
Humidity: 41% Direction: 200° (SSW)
Pressure: 30.12in Gusts: 0mph
Raw Report DataKAGC 282153Z AUTO 20008KT 10SM CLR 23/09 A3012 RMK AO2 SLP201 T02280089
Traffic Incident Summary
Active as of:
Severity:
Category:
InformationThere was an issue retrieving the traffic information for this location. Please try a different location or try again shortly.
Advertisements
Track Severe Weather on mobile